createdAt,value
2019-02-25T00:01:21.260Z,15.23
2019-02-25T00:03:48.308Z,21.00
2019-02-25T00:06:15.335Z,23.43
2019-02-25T00:08:42.404Z,18.37
2019-02-25T00:11:09.455Z,16.90
2019-02-25T00:13:36.509Z,16.47
2019-02-25T00:16:03.658Z,14.83
2019-02-25T00:18:30.712Z,20.60
2019-02-25T00:21:03.075Z,27.30
2019-02-25T00:23:31.304Z,15.10
2019-02-25T00:25:58.407Z,17.30
2019-02-25T00:28:25.451Z,15.67
2019-02-25T00:30:53.937Z,12.93
2019-02-25T00:33:20.945Z,18.10
2019-02-25T00:35:48.029Z,18.07
2019-02-25T00:38:15.795Z,18.03
2019-02-25T00:40:42.790Z,18.97
2019-02-25T00:43:09.892Z,23.77
2019-02-25T00:45:38.578Z,19.50
2019-02-25T00:48:05.631Z,25.43
2019-02-25T00:50:32.683Z,15.50
2019-02-25T00:53:01.466Z,16.67
2019-02-25T00:55:28.518Z,17.47
2019-02-25T00:57:55.574Z,18.07
2019-02-25T01:00:24.050Z,16.33
2019-02-25T01:02:51.602Z,19.90
2019-02-25T01:05:18.820Z,18.50
2019-02-25T01:07:45.906Z,15.53
2019-02-25T01:10:12.895Z,16.87
2019-02-25T01:12:40.051Z,17.57
2019-02-25T01:15:07.972Z,18.73
2019-02-25T01:17:34.973Z,14.37
2019-02-25T01:20:02.070Z,16.87
2019-02-25T01:22:29.117Z,16.87
2019-02-25T01:24:56.171Z,16.83
2019-02-25T01:27:23.235Z,16.07
2019-02-25T01:29:50.266Z,16.47
2019-02-25T01:32:17.316Z,18.53
2019-02-25T01:34:44.360Z,17.20
2019-02-25T01:37:11.409Z,18.67
2019-02-25T01:39:38.464Z,22.10
2019-02-25T01:42:05.506Z,18.27
2019-02-25T01:44:32.555Z,10.53
2019-02-25T01:46:59.606Z,11.90
2019-02-25T01:49:26.652Z,14.43
2019-02-25T01:51:53.700Z,21.93
2019-02-25T01:54:20.696Z,14.30
2019-02-25T01:56:47.711Z,17.87
2019-02-25T01:59:14.791Z,17.90
2019-02-25T02:01:42.301Z,15.03
2019-02-25T02:04:09.356Z,17.53
2019-02-25T02:06:36.814Z,13.73
2019-02-25T02:09:03.966Z,13.63
2019-02-25T02:11:31.007Z,15.70
2019-02-25T02:13:58.056Z,13.63
2019-02-25T02:16:25.114Z,14.43
2019-02-25T02:18:52.164Z,7.90
2019-02-25T02:21:19.202Z,11.43
2019-02-25T02:23:46.258Z,21.20
2019-02-25T02:26:13.302Z,5.77
2019-02-25T02:28:40.713Z,15.27
2019-02-25T02:31:07.715Z,14.27
2019-02-25T02:33:34.754Z,13.67
2019-02-25T02:36:02.879Z,22.80
2019-02-25T02:38:29.873Z,19.17
2019-02-25T02:40:56.933Z,13.67
2019-02-25T02:43:23.974Z,19.53
2019-02-25T02:45:51.018Z,16.97
2019-02-25T02:48:22.067Z,15.63
2019-02-25T02:50:49.111Z,10.73
2019-02-25T02:53:16.157Z,11.20
2019-02-25T02:55:43.215Z,20.40
2019-02-25T02:58:10.255Z,13.13
2019-02-25T03:00:37.306Z,11.97
2019-02-25T03:03:04.359Z,17.43
2019-02-25T03:05:31.519Z,15.23
2019-02-25T03:07:58.550Z,16.80
2019-02-25T03:10:25.706Z,14.10
2019-02-25T03:12:52.751Z,15.70
2019-02-25T03:15:20.016Z,19.13
2019-02-25T03:17:47.052Z,21.67
2019-02-25T03:20:14.048Z,11.63
2019-02-25T03:22:41.155Z,16.83
2019-02-25T03:25:12.246Z,11.67
2019-02-25T03:27:39.324Z,14.27
2019-02-25T03:30:06.340Z,15.47
2019-02-25T03:32:33.439Z,16.43
2019-02-25T03:35:00.495Z,10.67
2019-02-25T03:37:27.540Z,14.53
2019-02-25T03:39:54.584Z,12.33
2019-02-25T03:42:21.635Z,16.67
2019-02-25T03:44:48.695Z,17.60
2019-02-25T03:47:15.742Z,19.63
2019-02-25T03:49:42.780Z,17.67
2019-02-25T03:52:09.833Z,11.00
2019-02-25T03:54:38.415Z,14.80
2019-02-25T03:57:05.463Z,10.73
2019-02-25T03:59:32.514Z,13.43
2019-02-25T04:02:00.735Z,11.90
2019-02-25T04:04:27.836Z,11.47
2019-02-25T04:06:56.520Z,11.33
2019-02-25T04:09:23.528Z,12.73
2019-02-25T04:11:50.616Z,15.20
2019-02-25T04:14:17.666Z,12.70
2019-02-25T04:16:44.816Z,11.90
2019-02-25T04:19:13.714Z,13.20
2019-02-25T04:21:40.706Z,15.13
2019-02-25T04:24:07.805Z,8.97
2019-02-25T04:26:34.889Z,11.50
2019-02-25T04:29:02.107Z,18.00
2019-02-25T04:31:29.160Z,15.40
2019-02-25T04:33:56.632Z,17.70
2019-02-25T04:36:23.662Z,12.17
2019-02-25T04:38:50.711Z,12.63
2019-02-25T04:41:17.761Z,4.73
2019-02-25T04:43:44.809Z,15.93
2019-02-25T04:46:11.961Z,10.70
2019-02-25T04:48:39.005Z,9.47
2019-02-25T04:51:06.161Z,8.93
2019-02-25T04:53:33.226Z,7.40
2019-02-25T04:56:00.252Z,10.70
2019-02-25T04:58:27.302Z,14.53
2019-02-25T05:00:55.170Z,6.77
2019-02-25T05:03:22.220Z,3.97
2019-02-25T05:05:49.275Z,8.73
2019-02-25T05:08:16.315Z,5.87
2019-02-25T05:10:43.363Z,7.80
2019-02-25T05:13:10.429Z,2.43
2019-02-25T05:15:37.567Z,8.23
2019-02-25T05:18:04.618Z,6.43
2019-02-25T05:20:31.659Z,5.93
2019-02-25T05:22:58.713Z,2.10
2019-02-25T05:25:25.723Z,8.67
2019-02-25T05:27:52.711Z,2.77
2019-02-25T05:30:19.712Z,21.10
2019-02-25T05:32:46.797Z,14.80
2019-02-25T05:35:14.053Z,21.17
2019-02-25T05:37:42.496Z,15.80
2019-02-25T05:40:13.393Z,4.67
2019-02-25T05:42:44.020Z,15.53
2019-02-25T05:45:11.157Z,3.50
2019-02-25T05:47:38.210Z,5.47
2019-02-25T05:50:07.047Z,16.43
2019-02-25T05:52:34.048Z,9.37
2019-02-25T05:55:01.092Z,18.80
2019-02-25T05:57:28.148Z,13.07
2019-02-25T05:59:57.957Z,21.83
2019-02-25T06:02:25.923Z,13.13
2019-02-25T06:04:52.971Z,8.63
2019-02-25T06:07:20.035Z,16.13
2019-02-25T06:09:47.535Z,13.93
2019-02-25T06:12:14.631Z,17.40
2019-02-25T06:14:41.802Z,7.17
2019-02-25T06:17:09.035Z,17.43
2019-02-25T06:19:38.079Z,32.43
2019-02-25T06:22:05.893Z,20.10
2019-02-25T06:24:33.046Z,8.77
2019-02-25T06:27:00.095Z,10.20
2019-02-25T06:29:27.110Z,7.70
2019-02-25T06:31:54.189Z,9.87
2019-02-25T06:34:21.256Z,14.53
2019-02-25T06:36:50.758Z,24.17
2019-02-25T06:39:18.718Z,17.70
2019-02-25T06:41:45.868Z,16.57
2019-02-25T06:44:12.924Z,9.90
2019-02-25T06:46:39.978Z,16.80
2019-02-25T06:49:07.014Z,17.77
2019-02-25T06:51:34.159Z,11.10
2019-02-25T06:54:01.211Z,17.40
2019-02-25T06:56:28.203Z,18.37
2019-02-25T06:58:55.204Z,11.73
2019-02-25T07:01:22.257Z,9.17
2019-02-25T07:03:49.415Z,10.33
2019-02-25T07:06:18.514Z,13.37
2019-02-25T07:09:05.384Z,11.60
2019-02-25T07:11:33.489Z,8.13
2019-02-25T07:14:00.639Z,10.67
2019-02-25T07:16:28.257Z,9.70
2019-02-25T07:19:00.934Z,10.67
2019-02-25T07:21:38.984Z,10.30
2019-02-25T07:24:05.987Z,13.23
2019-02-25T07:26:38.716Z,9.67
2019-02-25T07:29:11.604Z,9.30
2019-02-25T07:31:44.602Z,8.30
2019-02-25T07:34:16.689Z,13.43
2019-02-25T07:37:00.864Z,7.57
2019-02-25T07:39:44.654Z,6.50
2019-02-25T07:42:12.410Z,7.50
2019-02-25T07:44:54.088Z,8.10
2019-02-25T07:47:24.222Z,6.30
2019-02-25T07:49:55.023Z,6.83
2019-02-25T07:52:23.093Z,8.47
2019-02-25T07:54:55.926Z,10.23
2019-02-25T07:57:24.416Z,7.50
2019-02-25T07:59:52.166Z,4.23
2019-02-25T08:02:20.236Z,9.80
2019-02-25T08:04:48.002Z,9.33
2019-02-25T08:07:27.036Z,10.17
2019-02-25T08:09:59.838Z,9.73
2019-02-25T08:12:27.789Z,7.80
2019-02-25T08:15:09.666Z,8.00
2019-02-25T08:17:51.584Z,9.60
2019-02-25T08:20:21.698Z,2.90
2019-02-25T08:22:51.462Z,9.30
2019-02-25T08:25:33.408Z,12.13
2019-02-25T08:28:02.197Z,14.87
2019-02-25T08:30:29.907Z,9.17
2019-02-25T08:32:59.775Z,3.33
2019-02-25T08:38:49.375Z,14.23
2019-02-25T08:41:31.374Z,12.73
2019-02-25T08:43:59.971Z,9.93
2019-02-25T08:46:30.811Z,16.90
2019-02-25T08:48:57.947Z,14.70
2019-02-25T08:51:24.999Z,12.37
2019-02-25T08:53:52.042Z,8.80
2019-02-25T08:56:19.034Z,14.63
2019-02-25T08:58:46.040Z,14.63
2019-02-25T09:01:13.086Z,10.53
2019-02-25T09:03:41.476Z,12.33
2019-02-25T09:06:08.617Z,10.83
2019-02-25T09:08:35.689Z,6.57
2019-02-25T09:11:02.824Z,12.37
2019-02-25T09:13:29.871Z,12.80
2019-02-25T09:15:56.913Z,16.17
2019-02-25T09:18:23.969Z,8.27
2019-02-25T09:20:51.013Z,9.77
2019-02-25T09:23:18.059Z,11.37
2019-02-25T09:25:45.112Z,11.63
2019-02-25T09:28:12.155Z,10.67
2019-02-25T09:30:39.207Z,14.70
2019-02-25T09:33:06.262Z,10.93
2019-02-25T09:35:33.204Z,28.17
2019-02-25T09:38:00.253Z,14.37
2019-02-25T09:40:27.299Z,11.87
2019-02-25T09:42:54.348Z,10.00
2019-02-25T09:45:22.015Z,14.13
2019-02-25T09:47:49.020Z,1.93
2019-02-25T09:50:18.050Z,10.63
2019-02-25T09:52:45.146Z,8.03
2019-02-25T09:55:14.400Z,8.30
2019-02-25T09:57:41.455Z,11.23
2019-02-25T10:00:10.503Z,5.90
2019-02-25T10:02:37.491Z,8.80
2019-02-25T10:05:04.541Z,8.73
2019-02-25T10:07:31.594Z,13.67
2019-02-25T10:09:58.636Z,6.03
2019-02-25T10:12:26.547Z,13.43
2019-02-25T10:14:53.553Z,8.13
2019-02-25T10:17:23.799Z,11.50
2019-02-25T10:19:47.753Z,13.83
2019-02-25T10:22:18.126Z,7.67
2019-02-25T10:24:45.127Z,15.33
2019-02-25T10:27:12.181Z,6.77
2019-02-25T10:29:39.224Z,5.57
2019-02-25T10:32:06.583Z,9.60
2019-02-25T10:34:33.424Z,8.77
2019-02-25T10:37:00.477Z,9.63
2019-02-25T10:39:27.521Z,12.07
2019-02-25T10:41:55.945Z,6.57
2019-02-25T10:44:21.617Z,10.53
2019-02-25T10:46:49.104Z,17.67
2019-02-25T10:49:15.818Z,10.70
2019-02-25T10:51:45.653Z,14.90
2019-02-25T10:54:11.611Z,13.13
2019-02-25T10:56:38.718Z,11.27
2019-02-25T10:59:06.243Z,14.73
2019-02-25T11:01:32.907Z,11.57
2019-02-25T11:03:59.931Z,14.57
2019-02-25T11:06:28.982Z,15.63
2019-02-25T11:08:56.098Z,15.60
2019-02-25T11:11:25.392Z,15.50
2019-02-25T11:13:51.320Z,15.30
2019-02-25T11:16:20.468Z,15.07
2019-02-25T11:18:46.558Z,17.27
2019-02-25T11:21:13.592Z,14.47
2019-02-25T11:23:40.645Z,14.43
2019-02-25T11:26:09.281Z,15.20
2019-02-25T11:28:38.639Z,15.77
2019-02-25T11:31:03.678Z,18.47
2019-02-25T11:33:33.936Z,15.53
2019-02-25T11:35:58.143Z,15.37
2019-02-25T11:38:26.109Z,16.53
2019-02-25T11:40:52.767Z,19.07
2019-02-25T11:43:21.617Z,20.03
2019-02-25T11:45:47.572Z,18.63
2019-02-25T11:50:47.909Z,16.50
2019-02-25T11:53:14.952Z,11.83
2019-02-25T11:55:43.746Z,14.97
2019-02-25T11:58:11.124Z,19.43
2019-02-25T12:00:41.506Z,15.80
2019-02-25T12:03:08.580Z,14.60
2019-02-25T12:05:35.621Z,17.77
2019-02-25T12:08:02.677Z,10.53
2019-02-25T12:10:29.667Z,17.13
2019-02-25T12:12:56.616Z,17.57
2019-02-25T12:15:23.718Z,15.73
2019-02-25T12:17:50.761Z,14.23
2019-02-25T12:20:17.810Z,14.57
2019-02-25T12:22:45.065Z,16.50
2019-02-25T12:25:14.899Z,17.77
2019-02-25T12:27:41.932Z,17.20
2019-02-25T12:30:11.128Z,20.27
2019-02-25T12:32:38.174Z,18.07
2019-02-25T12:35:05.327Z,17.67
2019-02-25T12:37:32.581Z,17.90
2019-02-25T12:39:59.631Z,16.00
2019-02-25T12:42:26.682Z,15.40
2019-02-25T12:44:53.675Z,15.03
2019-02-25T12:47:20.749Z,15.73
2019-02-25T12:49:48.899Z,4.40
2019-02-25T12:52:15.997Z,14.60
2019-02-25T12:54:43.091Z,17.25
2019-02-25T12:57:12.615Z,17.02
2019-02-25T12:59:39.721Z,16.25
2019-02-25T13:02:06.852Z,17.62
2019-02-25T13:04:33.919Z,17.00
2019-02-25T13:07:01.057Z,12.40
2019-02-25T13:09:28.212Z,18.37
2019-02-25T13:11:55.252Z,15.07
2019-02-25T13:14:22.383Z,13.98
2019-02-25T13:16:49.504Z,17.85
2019-02-25T13:19:16.505Z,21.12
2019-02-25T13:21:47.803Z,14.87
2019-02-25T13:24:14.911Z,14.52
2019-02-25T13:26:42.366Z,13.57
2019-02-25T13:29:09.389Z,13.23
2019-02-25T13:31:36.453Z,16.92
2019-02-25T13:34:03.911Z,14.65
2019-02-25T13:36:31.188Z,17.08
2019-02-25T13:38:58.214Z,12.90
2019-02-25T13:41:27.291Z,19.95
2019-02-25T13:43:54.359Z,14.98
2019-02-25T13:46:21.410Z,17.00
2019-02-25T13:48:49.535Z,16.35
2019-02-25T13:51:16.734Z,19.75
2019-02-25T13:53:43.852Z,13.80
2019-02-25T13:56:11.021Z,16.98
2019-02-25T13:58:38.186Z,15.38
2019-02-25T14:01:05.341Z,14.70
2019-02-25T14:03:32.387Z,13.82
2019-02-25T14:05:59.453Z,14.70
2019-02-25T14:08:26.592Z,16.58
2019-02-25T14:10:53.635Z,20.75
2019-02-25T14:13:21.510Z,33.78
2019-02-25T14:15:48.619Z,18.80
2019-02-25T14:18:15.703Z,22.58
2019-02-25T14:20:42.853Z,23.40
2019-02-25T14:23:10.003Z,25.37
2019-02-25T14:25:38.345Z,20.12
2019-02-25T14:28:07.942Z,20.95
2019-02-25T14:30:33.542Z,21.73
2019-02-25T14:32:58.928Z,22.05
2019-02-25T14:35:28.484Z,23.50
2019-02-25T14:37:54.246Z,22.62
2019-02-25T14:40:21.734Z,24.27
2019-02-25T14:42:49.415Z,22.90
2019-02-25T14:45:19.681Z,24.17
2019-02-25T14:47:44.552Z,21.42
2019-02-25T14:50:10.463Z,23.08
2019-02-25T14:52:40.840Z,23.50
2019-02-25T14:55:09.401Z,23.73
2019-02-25T14:57:35.531Z,21.62
2019-02-25T15:00:03.152Z,24.45
2019-02-25T15:02:30.258Z,22.00
2019-02-25T15:04:57.420Z,25.02
2019-02-25T15:07:24.505Z,20.90
2019-02-25T15:09:51.834Z,26.95
2019-02-25T15:12:20.681Z,24.42
2019-02-25T15:14:46.121Z,20.85
2019-02-25T15:17:14.814Z,21.77
2019-02-25T15:19:40.861Z,22.52
2019-02-25T15:22:09.988Z,25.67
2019-02-25T15:24:37.080Z,21.10
2019-02-25T15:27:06.230Z,22.37
2019-02-25T15:29:31.699Z,21.75
2019-02-25T15:31:59.347Z,27.85
2019-02-25T15:34:27.907Z,22.20
2019-02-25T15:36:56.422Z,31.30
2019-02-25T15:39:23.510Z,23.40
2019-02-25T15:41:50.979Z,23.17
2019-02-25T15:44:16.637Z,23.92
2019-02-25T15:46:43.788Z,24.65
2019-02-25T15:49:12.845Z,23.38
2019-02-25T15:51:39.099Z,25.75
2019-02-25T15:54:05.346Z,21.67
2019-02-25T15:56:32.392Z,23.40
2019-02-25T15:58:59.445Z,25.70
2019-02-25T16:01:26.488Z,24.00
2019-02-25T16:03:56.486Z,25.17
2019-02-25T16:06:20.687Z,24.67
2019-02-25T16:08:50.015Z,27.47
2019-02-25T16:11:16.320Z,23.07
2019-02-25T16:13:41.937Z,24.43
2019-02-25T16:16:09.087Z,23.27
2019-02-25T16:18:37.058Z,28.83
2019-02-25T16:21:04.211Z,29.53
2019-02-25T16:23:34.125Z,26.77
2019-02-25T16:25:59.434Z,31.90
2019-02-25T16:28:26.547Z,23.00
2019-02-25T16:30:53.652Z,27.00
2019-02-25T16:33:20.791Z,24.47
2019-02-25T16:35:47.832Z,29.57
2019-02-25T16:38:14.982Z,28.50
2019-02-25T16:40:42.139Z,26.20
2019-02-25T16:43:10.494Z,29.03
2019-02-25T16:45:37.903Z,30.30
2019-02-25T16:48:03.794Z,23.97
2019-02-25T16:50:30.944Z,28.13
2019-02-25T16:52:58.091Z,31.37
2019-02-25T16:55:27.372Z,25.87
2019-02-25T16:57:52.299Z,25.30
2019-02-25T17:00:24.846Z,28.30
2019-02-25T17:02:48.191Z,32.20
2019-02-25T17:05:15.286Z,29.93
2019-02-25T17:07:43.099Z,38.87
2019-02-25T17:10:12.374Z,31.60
2019-02-25T17:12:39.515Z,26.20
2019-02-25T17:15:09.968Z,34.77
2019-02-25T17:17:34.825Z,29.23
2019-02-25T17:20:01.881Z,31.03
2019-02-25T17:22:29.988Z,29.30
2019-02-25T17:25:03.005Z,27.33
2019-02-25T17:27:31.416Z,31.40
2019-02-25T17:29:59.838Z,35.87
2019-02-25T17:32:25.571Z,32.53
2019-02-25T17:34:52.900Z,33.20
2019-02-25T17:37:20.030Z,42.60
2019-02-25T17:39:48.074Z,28.83
2019-02-25T17:42:15.424Z,32.53
2019-02-25T17:44:43.946Z,37.40
2019-02-25T17:47:11.424Z,33.10
2019-02-25T17:49:40.614Z,31.80
2019-02-25T17:52:07.969Z,36.03
2019-02-25T17:54:35.984Z,39.67
2019-02-25T17:57:03.289Z,43.20
2019-02-25T18:02:13.095Z,43.47
2019-02-25T18:04:42.232Z,37.50
2019-02-25T18:07:09.348Z,39.93
2019-02-25T18:09:38.029Z,33.27
2019-02-25T18:12:04.321Z,36.47
2019-02-25T18:14:30.843Z,32.77
2019-02-25T18:16:57.993Z,34.37
2019-02-25T18:19:27.045Z,32.57
2019-02-25T18:21:52.306Z,39.60
2019-02-25T18:24:19.546Z,38.57
2019-02-25T18:26:48.660Z,40.23
2019-02-25T18:29:16.153Z,52.40
2019-02-25T18:31:42.962Z,30.23
2019-02-25T18:34:11.600Z,38.93
2019-02-25T18:36:37.310Z,40.97
2019-02-25T18:39:04.292Z,40.93
2019-02-25T18:41:34.315Z,56.90
2019-02-25T18:44:00.437Z,46.53
2019-02-25T18:46:53.433Z,41.30
2019-02-25T18:49:42.283Z,34.33
2019-02-25T18:52:31.844Z,35.03
2019-02-25T18:54:57.366Z,56.03
2019-02-25T18:57:25.294Z,42.43
2019-02-25T18:59:51.752Z,34.73
2019-02-25T19:02:20.136Z,36.97
2019-02-25T19:04:46.071Z,45.43
2019-02-25T19:07:15.194Z,38.07
2019-02-25T19:09:43.097Z,47.23
2019-02-25T19:12:09.550Z,42.17
2019-02-25T19:14:36.564Z,36.13
2019-02-25T19:17:06.572Z,47.90
2019-02-25T19:20:04.492Z,40.13
2019-02-25T19:23:00.826Z,34.87
2019-02-25T19:25:54.429Z,171.10
2019-02-25T19:28:50.077Z,28.17
2019-02-25T19:31:39.888Z,38.50
2019-02-25T19:34:29.048Z,37.00
2019-02-25T19:37:21.658Z,34.87
2019-02-25T19:40:14.411Z,42.47
2019-02-25T19:43:05.987Z,25.57
2019-02-25T19:45:59.967Z,35.90
2019-02-25T19:48:49.267Z,127.47
2019-02-25T19:51:43.393Z,38.37
2019-02-25T19:57:01.476Z,50.63
2019-02-25T19:59:34.561Z,60.67
2019-02-25T20:02:02.135Z,39.40
2019-02-25T20:04:33.497Z,37.23
2019-02-25T20:07:01.849Z,43.67
2019-02-25T20:09:32.373Z,37.80
2019-02-25T20:12:05.867Z,32.63
2019-02-25T20:14:37.828Z,32.70
2019-02-25T20:17:09.909Z,28.20
2019-02-25T20:19:39.146Z,31.67
2019-02-25T20:22:04.630Z,30.63
2019-02-25T20:24:33.318Z,31.20
2019-02-25T20:27:04.672Z,29.00
2019-02-25T20:29:55.459Z,29.00
2019-02-25T20:32:21.190Z,27.07
2019-02-25T20:34:50.108Z,31.43
2019-02-25T20:37:19.009Z,31.97
2019-02-25T20:39:45.067Z,32.77
2019-02-25T20:42:15.022Z,45.23
2019-02-25T20:44:41.350Z,48.03
2019-02-25T20:47:11.853Z,84.63
2019-02-25T20:49:39.235Z,31.80
2019-02-25T20:52:07.306Z,23.63
2019-02-25T20:54:40.866Z,24.90
2019-02-25T20:57:05.506Z,21.47
2019-02-25T20:59:53.090Z,29.87
2019-02-25T21:02:21.125Z,25.60
2019-02-25T21:04:52.407Z,26.53
2019-02-25T21:07:19.955Z,30.60
2019-02-25T21:09:47.164Z,37.60
2019-02-25T21:12:19.641Z,35.60
2019-02-25T21:14:44.970Z,43.17
2019-02-25T21:17:13.702Z,32.60
2019-02-25T21:19:45.074Z,50.80
2019-02-25T21:22:14.754Z,53.53
2019-02-25T21:24:41.955Z,50.60
2019-02-25T21:27:11.543Z,62.50
2019-02-25T21:29:39.123Z,45.70
2019-02-25T21:32:05.757Z,37.97
2019-02-25T21:34:33.000Z,34.90
2019-02-25T21:37:00.828Z,42.77
2019-02-25T21:39:27.105Z,41.60
2019-02-25T21:41:54.158Z,39.43
2019-02-25T21:44:21.818Z,51.33
2019-02-25T21:46:51.879Z,49.13
2019-02-25T21:49:15.550Z,44.27
2019-02-25T21:51:43.738Z,41.43
2019-02-25T21:54:12.572Z,42.97
2019-02-25T21:56:39.533Z,51.40
2019-02-25T21:59:08.267Z,44.40
2019-02-25T22:01:35.154Z,42.63
2019-02-25T22:04:01.483Z,40.43
2019-02-25T22:06:29.597Z,41.70
2019-02-25T22:08:56.812Z,37.43
2019-02-25T22:11:22.896Z,43.80
2019-02-25T22:13:50.500Z,52.00
2019-02-25T22:16:18.170Z,40.20
2019-02-25T22:18:45.208Z,44.17
2019-02-25T22:21:14.197Z,44.47
2019-02-25T22:23:39.817Z,44.23
2019-02-25T22:26:06.871Z,40.10
2019-02-25T22:28:37.618Z,33.70
2019-02-25T22:31:03.524Z,35.87
2019-02-25T22:33:30.594Z,35.37
2019-02-25T22:35:58.648Z,30.07
2019-02-25T22:38:25.794Z,31.20
2019-02-25T22:40:53.719Z,35.20
2019-02-25T22:43:20.830Z,34.83
2019-02-25T22:45:47.159Z,33.33
2019-02-25T22:48:31.907Z,33.13
2019-02-25T22:51:00.678Z,34.27
2019-02-25T22:53:26.126Z,33.20
2019-02-25T22:55:54.747Z,39.20
2019-02-25T22:58:20.308Z,37.43
2019-02-25T23:00:48.720Z,40.83
2019-02-25T23:03:18.521Z,33.00
2019-02-25T23:05:45.994Z,36.90
2019-02-25T23:08:13.182Z,34.00
2019-02-25T23:10:42.008Z,40.93
2019-02-25T23:13:07.551Z,38.60
2019-02-25T23:15:35.208Z,40.83
2019-02-25T23:18:05.529Z,35.87
2019-02-25T23:20:31.713Z,35.20
2019-02-25T23:23:00.049Z,36.30
2019-02-25T23:25:26.473Z,36.80
2019-02-25T23:27:55.642Z,31.20
2019-02-25T23:30:23.442Z,33.00
2019-02-25T23:32:52.224Z,33.33
2019-02-25T23:35:18.388Z,32.33
2019-02-25T23:37:47.452Z,36.40
2019-02-25T23:40:14.506Z,34.00
2019-02-25T23:42:41.864Z,42.93
2019-02-25T23:45:08.809Z,37.07
2019-02-25T23:47:37.759Z,38.33
2019-02-25T23:50:27.374Z,36.33
2019-02-25T23:52:54.527Z,31.33
2019-02-25T23:55:24.325Z,29.33
2019-02-25T23:57:49.935Z,31.37
